sensor_id;sensor_type;location;lat;lon;timestamp;P1;durP1;ratioP1;P2;durP2;ratioP2
19735;SDS011;32064;49.310;8.646;2023-12-22T00:01:29;0.40;;;0.40;;
19735;SDS011;32064;49.310;8.646;2023-12-22T00:03:54;1.33;;;0.50;;
19735;SDS011;32064;49.310;8.646;2023-12-22T00:06:20;0.30;;;0.30;;
19735;SDS011;32064;49.310;8.646;2023-12-22T00:08:46;0.30;;;0.30;;
19735;SDS011;32064;49.310;8.646;2023-12-22T00:11:11;0.30;;;0.30;;
19735;SDS011;32064;49.310;8.646;2023-12-22T00:13:36;1.33;;;0.50;;
19735;SDS011;32064;49.310;8.646;2023-12-22T00:16:02;1.13;;;0.50;;
19735;SDS011;32064;49.310;8.646;2023-12-22T00:18:28;0.40;;;0.40;;
19735;SDS011;32064;49.310;8.646;2023-12-22T00:20:53;0.30;;;0.30;;
19735;SDS011;32064;49.310;8.646;2023-12-22T00:23:19;0.20;;;0.20;;
19735;SDS011;32064;49.310;8.646;2023-12-22T00:25:44;0.27;;;0.23;;
19735;SDS011;32064;49.310;8.646;2023-12-22T00:28:09;0.50;;;0.40;;
19735;SDS011;32064;49.310;8.646;2023-12-22T00:30:35;0.57;;;0.50;;
19735;SDS011;32064;49.310;8.646;2023-12-22T00:33:00;0.50;;;0.33;;
19735;SDS011;32064;49.310;8.646;2023-12-22T00:35:25;0.30;;;0.30;;
19735;SDS011;32064;49.310;8.646;2023-12-22T00:37:51;0.50;;;0.50;;
19735;SDS011;32064;49.310;8.646;2023-12-22T00:40:18;0.77;;;0.43;;
19735;SDS011;32064;49.310;8.646;2023-12-22T00:42:43;0.30;;;0.30;;
19735;SDS011;32064;49.310;8.646;2023-12-22T00:45:08;0.33;;;0.33;;
19735;SDS011;32064;49.310;8.646;2023-12-22T00:47:34;0.30;;;0.30;;
19735;SDS011;32064;49.310;8.646;2023-12-22T00:50:00;0.40;;;0.40;;
19735;SDS011;32064;49.310;8.646;2023-12-22T00:52:26;0.30;;;0.30;;
19735;SDS011;32064;49.310;8.646;2023-12-22T00:54:52;0.30;;;0.30;;
19735;SDS011;32064;49.310;8.646;2023-12-22T00:57:17;0.30;;;0.30;;
19735;SDS011;32064;49.310;8.646;2023-12-22T00:59:43;0.33;;;0.33;;
19735;SDS011;32064;49.310;8.646;2023-12-22T01:02:12;0.33;;;0.33;;
19735;SDS011;32064;49.310;8.646;2023-12-22T01:04:42;0.20;;;0.20;;
19735;SDS011;32064;49.310;8.646;2023-12-22T01:07:07;0.40;;;0.40;;
19735;SDS011;32064;49.310;8.646;2023-12-22T01:09:33;0.40;;;0.40;;
19735;SDS011;32064;49.310;8.646;2023-12-22T01:11:59;0.40;;;0.40;;
19735;SDS011;32064;49.310;8.646;2023-12-22T01:14:27;0.40;;;0.40;;
19735;SDS011;32064;49.310;8.646;2023-12-22T01:16:53;0.30;;;0.30;;
19735;SDS011;32064;49.310;8.646;2023-12-22T01:19:18;0.50;;;0.50;;
19735;SDS011;32064;49.310;8.646;2023-12-22T01:21:44;1.03;;;0.53;;
19735;SDS011;32064;49.310;8.646;2023-12-22T01:24:09;0.20;;;0.20;;
19735;SDS011;32064;49.310;8.646;2023-12-22T01:26:35;0.20;;;0.20;;
19735;SDS011;32064;49.310;8.646;2023-12-22T01:29:00;0.40;;;0.40;;
19735;SDS011;32064;49.310;8.646;2023-12-22T01:31:25;0.50;;;0.30;;
19735;SDS011;32064;49.310;8.646;2023-12-22T01:33:51;0.33;;;0.33;;
19735;SDS011;32064;49.310;8.646;2023-12-22T01:36:16;2.63;;;0.47;;
19735;SDS011;32064;49.310;8.646;2023-12-22T01:38:41;0.63;;;0.63;;
19735;SDS011;32064;49.310;8.646;2023-12-22T01:41:07;0.20;;;0.20;;
19735;SDS011;32064;49.310;8.646;2023-12-22T01:43:33;0.30;;;0.30;;
19735;SDS011;32064;49.310;8.646;2023-12-22T01:45:59;1.20;;;0.40;;
19735;SDS011;32064;49.310;8.646;2023-12-22T01:48:26;0.40;;;0.40;;
19735;SDS011;32064;49.310;8.646;2023-12-22T01:50:52;0.20;;;0.20;;
19735;SDS011;32064;49.310;8.646;2023-12-22T01:53:20;0.30;;;0.30;;
19735;SDS011;32064;49.310;8.646;2023-12-22T01:55:49;0.77;;;0.63;;
19735;SDS011;32064;49.310;8.646;2023-12-22T01:58:16;0.57;;;0.50;;
19735;SDS011;32064;49.310;8.646;2023-12-22T02:00:43;0.40;;;0.40;;
19735;SDS011;32064;49.310;8.646;2023-12-22T02:03:08;2.53;;;1.17;;
19735;SDS011;32064;49.310;8.646;2023-12-22T02:05:34;4.90;;;2.43;;
19735;SDS011;32064;49.310;8.646;2023-12-22T02:07:59;4.70;;;2.10;;
19735;SDS011;32064;49.310;8.646;2023-12-22T02:10:25;2.53;;;1.10;;
19735;SDS011;32064;49.310;8.646;2023-12-22T02:12:50;1.33;;;1.03;;
19735;SDS011;32064;49.310;8.646;2023-12-22T02:15:16;0.40;;;0.40;;
19735;SDS011;32064;49.310;8.646;2023-12-22T02:20:17;1.23;;;0.60;;
19735;SDS011;32064;49.310;8.646;2023-12-22T02:22:44;1.27;;;0.80;;
19735;SDS011;32064;49.310;8.646;2023-12-22T02:25:09;1.23;;;0.77;;
19735;SDS011;32064;49.310;8.646;2023-12-22T02:27:51;0.67;;;0.60;;
19735;SDS011;32064;49.310;8.646;2023-12-22T02:32:55;0.53;;;0.53;;
19735;SDS011;32064;49.310;8.646;2023-12-22T02:35:26;4.33;;;1.57;;
19735;SDS011;32064;49.310;8.646;2023-12-22T02:37:53;0.50;;;0.50;;
19735;SDS011;32064;49.310;8.646;2023-12-22T02:40:21;0.60;;;0.60;;
19735;SDS011;32064;49.310;8.646;2023-12-22T02:42:47;3.80;;;1.10;;
19735;SDS011;32064;49.310;8.646;2023-12-22T02:45:14;1.33;;;0.87;;
19735;SDS011;32064;49.310;8.646;2023-12-22T02:47:41;0.87;;;0.60;;
19735;SDS011;32064;49.310;8.646;2023-12-22T02:50:07;0.73;;;0.73;;
19735;SDS011;32064;49.310;8.646;2023-12-22T02:52:33;1.80;;;0.90;;
19735;SDS011;32064;49.310;8.646;2023-12-22T02:54:58;0.70;;;0.70;;
19735;SDS011;32064;49.310;8.646;2023-12-22T02:57:23;0.80;;;0.80;;
19735;SDS011;32064;49.310;8.646;2023-12-22T02:59:49;2.83;;;1.07;;
19735;SDS011;32064;49.310;8.646;2023-12-22T03:02:14;0.90;;;0.80;;
19735;SDS011;32064;49.310;8.646;2023-12-22T03:04:40;1.00;;;0.90;;
19735;SDS011;32064;49.310;8.646;2023-12-22T03:07:05;1.03;;;0.63;;
19735;SDS011;32064;49.310;8.646;2023-12-22T03:09:31;0.60;;;0.60;;
19735;SDS011;32064;49.310;8.646;2023-12-22T03:11:57;1.37;;;0.93;;
19735;SDS011;32064;49.310;8.646;2023-12-22T03:14:28;0.93;;;0.70;;
19735;SDS011;32064;49.310;8.646;2023-12-22T03:16:54;0.57;;;0.57;;
19735;SDS011;32064;49.310;8.646;2023-12-22T03:19:20;0.60;;;0.60;;
19735;SDS011;32064;49.310;8.646;2023-12-22T03:21:47;0.50;;;0.50;;
19735;SDS011;32064;49.310;8.646;2023-12-22T03:24:13;2.77;;;0.93;;
19735;SDS011;32064;49.310;8.646;2023-12-22T03:26:38;2.43;;;0.97;;
19735;SDS011;32064;49.310;8.646;2023-12-22T03:29:04;2.93;;;0.90;;
19735;SDS011;32064;49.310;8.646;2023-12-22T03:31:30;4.47;;;1.10;;
19735;SDS011;32064;49.310;8.646;2023-12-22T03:33:55;4.07;;;1.23;;
19735;SDS011;32064;49.310;8.646;2023-12-22T03:36:21;0.60;;;0.57;;
19735;SDS011;32064;49.310;8.646;2023-12-22T03:38:46;4.23;;;0.90;;
19735;SDS011;32064;49.310;8.646;2023-12-22T03:41:13;1.27;;;0.90;;
19735;SDS011;32064;49.310;8.646;2023-12-22T03:43:38;1.97;;;1.00;;
19735;SDS011;32064;49.310;8.646;2023-12-22T03:46:04;1.13;;;0.93;;
19735;SDS011;32064;49.310;8.646;2023-12-22T03:48:29;1.60;;;0.90;;
19735;SDS011;32064;49.310;8.646;2023-12-22T03:50:54;1.80;;;0.73;;
19735;SDS011;32064;49.310;8.646;2023-12-22T03:53:20;0.83;;;0.83;;
19735;SDS011;32064;49.310;8.646;2023-12-22T03:55:45;0.50;;;0.50;;
19735;SDS011;32064;49.310;8.646;2023-12-22T03:58:10;2.37;;;1.37;;
19735;SDS011;32064;49.310;8.646;2023-12-22T04:00:36;3.20;;;1.03;;
19735;SDS011;32064;49.310;8.646;2023-12-22T04:03:01;0.60;;;0.60;;
19735;SDS011;32064;49.310;8.646;2023-12-22T04:05:27;3.93;;;1.40;;
19735;SDS011;32064;49.310;8.646;2023-12-22T04:07:52;0.73;;;0.67;;
19735;SDS011;32064;49.310;8.646;2023-12-22T04:10:18;1.23;;;0.87;;
19735;SDS011;32064;49.310;8.646;2023-12-22T04:12:43;1.93;;;0.60;;
19735;SDS011;32064;49.310;8.646;2023-12-22T04:15:09;0.97;;;0.90;;
19735;SDS011;32064;49.310;8.646;2023-12-22T04:17:35;0.90;;;0.73;;
19735;SDS011;32064;49.310;8.646;2023-12-22T04:20:18;0.60;;;0.50;;
19735;SDS011;32064;49.310;8.646;2023-12-22T04:22:43;1.10;;;0.80;;
19735;SDS011;32064;49.310;8.646;2023-12-22T04:25:09;2.50;;;0.90;;
19735;SDS011;32064;49.310;8.646;2023-12-22T04:27:34;1.30;;;0.60;;
19735;SDS011;32064;49.310;8.646;2023-12-22T04:30:00;1.77;;;0.70;;
19735;SDS011;32064;49.310;8.646;2023-12-22T04:32:26;0.67;;;0.60;;
19735;SDS011;32064;49.310;8.646;2023-12-22T04:34:51;1.03;;;0.80;;
19735;SDS011;32064;49.310;8.646;2023-12-22T04:37:16;0.73;;;0.70;;
19735;SDS011;32064;49.310;8.646;2023-12-22T04:39:42;2.37;;;1.20;;
19735;SDS011;32064;49.310;8.646;2023-12-22T04:42:07;0.40;;;0.40;;
19735;SDS011;32064;49.310;8.646;2023-12-22T04:44:33;4.63;;;1.07;;
19735;SDS011;32064;49.310;8.646;2023-12-22T04:46:58;0.70;;;0.50;;
19735;SDS011;32064;49.310;8.646;2023-12-22T04:49:23;1.47;;;1.07;;
19735;SDS011;32064;49.310;8.646;2023-12-22T04:51:49;0.50;;;0.50;;
19735;SDS011;32064;49.310;8.646;2023-12-22T04:54:14;5.00;;;1.33;;
19735;SDS011;32064;49.310;8.646;2023-12-22T04:56:40;0.67;;;0.67;;
19735;SDS011;32064;49.310;8.646;2023-12-22T04:59:05;1.27;;;0.73;;
19735;SDS011;32064;49.310;8.646;2023-12-22T05:01:30;1.50;;;0.53;;
19735;SDS011;32064;49.310;8.646;2023-12-22T05:03:56;0.83;;;0.77;;
19735;SDS011;32064;49.310;8.646;2023-12-22T05:06:21;0.40;;;0.40;;
19735;SDS011;32064;49.310;8.646;2023-12-22T05:08:47;0.93;;;0.80;;
19735;SDS011;32064;49.310;8.646;2023-12-22T05:11:12;1.03;;;0.90;;
19735;SDS011;32064;49.310;8.646;2023-12-22T05:13:37;0.50;;;0.50;;
19735;SDS011;32064;49.310;8.646;2023-12-22T05:16:03;0.67;;;0.60;;
19735;SDS011;32064;49.310;8.646;2023-12-22T05:18:29;1.50;;;1.00;;
19735;SDS011;32064;49.310;8.646;2023-12-22T05:20:55;0.70;;;0.70;;
19735;SDS011;32064;49.310;8.646;2023-12-22T05:23:20;1.33;;;0.83;;
19735;SDS011;32064;49.310;8.646;2023-12-22T05:25:45;3.70;;;1.03;;
19735;SDS011;32064;49.310;8.646;2023-12-22T05:28:11;0.97;;;0.70;;
19735;SDS011;32064;49.310;8.646;2023-12-22T05:30:36;1.17;;;0.70;;
19735;SDS011;32064;49.310;8.646;2023-12-22T05:33:04;1.10;;;0.80;;
19735;SDS011;32064;49.310;8.646;2023-12-22T05:35:29;0.40;;;0.40;;
19735;SDS011;32064;49.310;8.646;2023-12-22T05:37:54;4.73;;;1.33;;
19735;SDS011;32064;49.310;8.646;2023-12-22T05:40:20;1.27;;;1.00;;
19735;SDS011;32064;49.310;8.646;2023-12-22T05:42:45;1.53;;;1.00;;
19735;SDS011;32064;49.310;8.646;2023-12-22T05:45:11;3.03;;;1.00;;
19735;SDS011;32064;49.310;8.646;2023-12-22T05:47:36;2.27;;;0.87;;
19735;SDS011;32064;49.310;8.646;2023-12-22T05:50:02;1.60;;;0.73;;
19735;SDS011;32064;49.310;8.646;2023-12-22T05:52:29;0.67;;;0.67;;
19735;SDS011;32064;49.310;8.646;2023-12-22T05:54:54;1.13;;;0.80;;
19735;SDS011;32064;49.310;8.646;2023-12-22T05:57:19;1.87;;;0.83;;
19735;SDS011;32064;49.310;8.646;2023-12-22T05:59:45;3.37;;;1.10;;
19735;SDS011;32064;49.310;8.646;2023-12-22T06:02:10;1.50;;;0.70;;
19735;SDS011;32064;49.310;8.646;2023-12-22T06:04:35;3.73;;;1.10;;
19735;SDS011;32064;49.310;8.646;2023-12-22T06:07:01;2.57;;;1.10;;
19735;SDS011;32064;49.310;8.646;2023-12-22T06:09:26;2.37;;;1.23;;
19735;SDS011;32064;49.310;8.646;2023-12-22T06:11:52;1.97;;;1.00;;
19735;SDS011;32064;49.310;8.646;2023-12-22T06:14:18;0.57;;;0.57;;
19735;SDS011;32064;49.310;8.646;2023-12-22T06:16:43;1.50;;;1.03;;
19735;SDS011;32064;49.310;8.646;2023-12-22T06:19:08;2.17;;;1.10;;
19735;SDS011;32064;49.310;8.646;2023-12-22T06:21:37;1.60;;;0.97;;
19735;SDS011;32064;49.310;8.646;2023-12-22T06:24:03;5.17;;;1.03;;
19735;SDS011;32064;49.310;8.646;2023-12-22T06:26:28;3.73;;;1.43;;
19735;SDS011;32064;49.310;8.646;2023-12-22T06:28:54;1.50;;;0.90;;
19735;SDS011;32064;49.310;8.646;2023-12-22T06:31:20;4.23;;;1.00;;
19735;SDS011;32064;49.310;8.646;2023-12-22T06:33:47;2.10;;;0.80;;
19735;SDS011;32064;49.310;8.646;2023-12-22T06:36:22;2.27;;;1.17;;
19735;SDS011;32064;49.310;8.646;2023-12-22T06:38:49;4.77;;;1.63;;
19735;SDS011;32064;49.310;8.646;2023-12-22T06:41:22;2.17;;;1.10;;
19735;SDS011;32064;49.310;8.646;2023-12-22T06:43:49;1.43;;;1.03;;
19735;SDS011;32064;49.310;8.646;2023-12-22T06:46:16;2.00;;;1.03;;
19735;SDS011;32064;49.310;8.646;2023-12-22T06:48:43;1.90;;;1.17;;
19735;SDS011;32064;49.310;8.646;2023-12-22T06:51:16;1.70;;;0.97;;
19735;SDS011;32064;49.310;8.646;2023-12-22T06:53:48;1.17;;;0.77;;
19735;SDS011;32064;49.310;8.646;2023-12-22T06:56:17;3.77;;;1.63;;
19735;SDS011;32064;49.310;8.646;2023-12-22T06:58:47;2.37;;;1.03;;
19735;SDS011;32064;49.310;8.646;2023-12-22T07:01:20;1.63;;;1.10;;
19735;SDS011;32064;49.310;8.646;2023-12-22T07:03:47;1.00;;;0.70;;
19735;SDS011;32064;49.310;8.646;2023-12-22T07:06:13;1.17;;;0.67;;
19735;SDS011;32064;49.310;8.646;2023-12-22T07:08:40;1.33;;;0.97;;
19735;SDS011;32064;49.310;8.646;2023-12-22T07:11:05;1.60;;;0.90;;
19735;SDS011;32064;49.310;8.646;2023-12-22T07:13:32;1.37;;;1.10;;
19735;SDS011;32064;49.310;8.646;2023-12-22T07:15:57;0.63;;;0.63;;
19735;SDS011;32064;49.310;8.646;2023-12-22T07:18:23;0.50;;;0.50;;
19735;SDS011;32064;49.310;8.646;2023-12-22T07:20:50;1.17;;;0.90;;
19735;SDS011;32064;49.310;8.646;2023-12-22T07:23:15;0.40;;;0.40;;
19735;SDS011;32064;49.310;8.646;2023-12-22T07:25:41;0.57;;;0.57;;
19735;SDS011;32064;49.310;8.646;2023-12-22T07:28:06;2.40;;;0.80;;
19735;SDS011;32064;49.310;8.646;2023-12-22T07:30:31;1.50;;;0.60;;
19735;SDS011;32064;49.310;8.646;2023-12-22T07:32:57;0.93;;;0.60;;
19735;SDS011;32064;49.310;8.646;2023-12-22T07:35:22;0.97;;;0.70;;
19735;SDS011;32064;49.310;8.646;2023-12-22T07:37:47;0.87;;;0.53;;
19735;SDS011;32064;49.310;8.646;2023-12-22T07:40:13;2.50;;;0.80;;
19735;SDS011;32064;49.310;8.646;2023-12-22T07:42:38;1.07;;;0.80;;
19735;SDS011;32064;49.310;8.646;2023-12-22T07:45:04;1.20;;;0.80;;
19735;SDS011;32064;49.310;8.646;2023-12-22T07:47:31;3.27;;;1.03;;
19735;SDS011;32064;49.310;8.646;2023-12-22T07:49:57;1.00;;;0.60;;
19735;SDS011;32064;49.310;8.646;2023-12-22T07:52:23;0.60;;;0.60;;
19735;SDS011;32064;49.310;8.646;2023-12-22T07:54:48;2.40;;;0.97;;
19735;SDS011;32064;49.310;8.646;2023-12-22T07:57:13;0.50;;;0.50;;
19735;SDS011;32064;49.310;8.646;2023-12-22T07:59:39;1.90;;;0.83;;
19735;SDS011;32064;49.310;8.646;2023-12-22T08:02:04;0.73;;;0.60;;
19735;SDS011;32064;49.310;8.646;2023-12-22T08:04:29;1.53;;;0.80;;
19735;SDS011;32064;49.310;8.646;2023-12-22T08:06:55;6.03;;;0.70;;
19735;SDS011;32064;49.310;8.646;2023-12-22T08:09:20;0.87;;;0.63;;
19735;SDS011;32064;49.310;8.646;2023-12-22T08:11:47;0.80;;;0.70;;
19735;SDS011;32064;49.310;8.646;2023-12-22T08:14:17;1.13;;;0.80;;
19735;SDS011;32064;49.310;8.646;2023-12-22T08:16:43;0.70;;;0.60;;
19735;SDS011;32064;49.310;8.646;2023-12-22T08:19:09;0.70;;;0.60;;
19735;SDS011;32064;49.310;8.646;2023-12-22T08:21:35;3.23;;;1.00;;
19735;SDS011;32064;49.310;8.646;2023-12-22T08:24:00;1.17;;;0.63;;
19735;SDS011;32064;49.310;8.646;2023-12-22T08:26:26;0.77;;;0.77;;
19735;SDS011;32064;49.310;8.646;2023-12-22T08:28:51;0.77;;;0.77;;
19735;SDS011;32064;49.310;8.646;2023-12-22T08:31:19;1.73;;;1.20;;
19735;SDS011;32064;49.310;8.646;2023-12-22T08:33:44;2.57;;;0.93;;
19735;SDS011;32064;49.310;8.646;2023-12-22T08:36:10;0.40;;;0.40;;
19735;SDS011;32064;49.310;8.646;2023-12-22T08:38:36;0.87;;;0.77;;
19735;SDS011;32064;49.310;8.646;2023-12-22T08:41:05;3.13;;;1.47;;
19735;SDS011;32064;49.310;8.646;2023-12-22T08:43:32;1.63;;;1.27;;
19735;SDS011;32064;49.310;8.646;2023-12-22T08:45:57;3.33;;;1.67;;
19735;SDS011;32064;49.310;8.646;2023-12-22T08:48:23;2.73;;;1.33;;
19735;SDS011;32064;49.310;8.646;2023-12-22T08:50:48;4.23;;;1.57;;
19735;SDS011;32064;49.310;8.646;2023-12-22T08:53:15;3.50;;;1.30;;
19735;SDS011;32064;49.310;8.646;2023-12-22T08:55:40;2.53;;;1.00;;
19735;SDS011;32064;49.310;8.646;2023-12-22T08:58:05;3.07;;;1.30;;
19735;SDS011;32064;49.310;8.646;2023-12-22T09:00:31;9.90;;;4.23;;
19735;SDS011;32064;49.310;8.646;2023-12-22T09:02:56;2.13;;;1.30;;
19735;SDS011;32064;49.310;8.646;2023-12-22T09:05:22;1.67;;;1.00;;
19735;SDS011;32064;49.310;8.646;2023-12-22T09:07:47;1.57;;;1.20;;
19735;SDS011;32064;49.310;8.646;2023-12-22T09:10:13;2.87;;;1.53;;
19735;SDS011;32064;49.310;8.646;2023-12-22T09:12:38;3.57;;;1.73;;
19735;SDS011;32064;49.310;8.646;2023-12-22T09:15:03;2.23;;;1.13;;
19735;SDS011;32064;49.310;8.646;2023-12-22T09:17:29;2.20;;;1.30;;
19735;SDS011;32064;49.310;8.646;2023-12-22T09:19:54;4.03;;;1.57;;
19735;SDS011;32064;49.310;8.646;2023-12-22T09:22:20;2.57;;;1.40;;
19735;SDS011;32064;49.310;8.646;2023-12-22T09:24:46;2.43;;;1.50;;
19735;SDS011;32064;49.310;8.646;2023-12-22T09:27:12;1.20;;;1.10;;
19735;SDS011;32064;49.310;8.646;2023-12-22T09:29:38;4.90;;;1.80;;
19735;SDS011;32064;49.310;8.646;2023-12-22T09:32:03;2.17;;;1.83;;
19735;SDS011;32064;49.310;8.646;2023-12-22T09:34:29;6.87;;;2.17;;
19735;SDS011;32064;49.310;8.646;2023-12-22T09:36:54;4.20;;;1.93;;
19735;SDS011;32064;49.310;8.646;2023-12-22T09:39:20;4.63;;;1.53;;
19735;SDS011;32064;49.310;8.646;2023-12-22T09:41:47;4.97;;;1.67;;
19735;SDS011;32064;49.310;8.646;2023-12-22T09:44:14;5.47;;;2.30;;
19735;SDS011;32064;49.310;8.646;2023-12-22T09:46:43;1.60;;;1.33;;
19735;SDS011;32064;49.310;8.646;2023-12-22T09:49:09;4.30;;;1.20;;
19735;SDS011;32064;49.310;8.646;2023-12-22T09:51:36;4.47;;;1.37;;
19735;SDS011;32064;49.310;8.646;2023-12-22T09:54:02;2.33;;;1.27;;
19735;SDS011;32064;49.310;8.646;2023-12-22T09:56:29;2.40;;;1.60;;
19735;SDS011;32064;49.310;8.646;2023-12-22T09:58:55;3.47;;;1.50;;
19735;SDS011;32064;49.310;8.646;2023-12-22T10:01:22;3.53;;;1.63;;
19735;SDS011;32064;49.310;8.646;2023-12-22T10:03:48;4.30;;;2.10;;
19735;SDS011;32064;49.310;8.646;2023-12-22T10:06:14;4.83;;;2.03;;
19735;SDS011;32064;49.310;8.646;2023-12-22T10:08:42;7.17;;;2.07;;
19735;SDS011;32064;49.310;8.646;2023-12-22T10:11:09;5.13;;;1.77;;
19735;SDS011;32064;49.310;8.646;2023-12-22T10:13:36;4.03;;;1.73;;
19735;SDS011;32064;49.310;8.646;2023-12-22T10:16:02;14.80;;;2.33;;
19735;SDS011;32064;49.310;8.646;2023-12-22T10:18:32;2.80;;;1.73;;
19735;SDS011;32064;49.310;8.646;2023-12-22T10:20:58;2.67;;;1.53;;
19735;SDS011;32064;49.310;8.646;2023-12-22T10:23:23;4.47;;;1.20;;
19735;SDS011;32064;49.310;8.646;2023-12-22T10:25:49;6.10;;;2.57;;
19735;SDS011;32064;49.310;8.646;2023-12-22T10:28:16;3.23;;;1.23;;
19735;SDS011;32064;49.310;8.646;2023-12-22T10:30:42;4.00;;;2.13;;
19735;SDS011;32064;49.310;8.646;2023-12-22T10:33:10;2.67;;;1.70;;
19735;SDS011;32064;49.310;8.646;2023-12-22T10:35:36;5.67;;;1.60;;
19735;SDS011;32064;49.310;8.646;2023-12-22T10:38:03;4.13;;;1.67;;
19735;SDS011;32064;49.310;8.646;2023-12-22T10:40:29;5.03;;;1.90;;
19735;SDS011;32064;49.310;8.646;2023-12-22T10:42:54;14.20;;;2.27;;
19735;SDS011;32064;49.310;8.646;2023-12-22T10:45:20;2.67;;;1.63;;
19735;SDS011;32064;49.310;8.646;2023-12-22T10:47:47;9.17;;;1.90;;
19735;SDS011;32064;49.310;8.646;2023-12-22T10:50:15;3.70;;;1.97;;
19735;SDS011;32064;49.310;8.646;2023-12-22T10:52:48;4.20;;;1.83;;
19735;SDS011;32064;49.310;8.646;2023-12-22T10:55:15;6.57;;;2.00;;
19735;SDS011;32064;49.310;8.646;2023-12-22T10:57:41;2.67;;;1.63;;
19735;SDS011;32064;49.310;8.646;2023-12-22T11:00:06;6.70;;;2.27;;
19735;SDS011;32064;49.310;8.646;2023-12-22T11:02:33;4.27;;;1.63;;
19735;SDS011;32064;49.310;8.646;2023-12-22T11:05:01;7.73;;;2.20;;
19735;SDS011;32064;49.310;8.646;2023-12-22T11:07:32;7.20;;;2.20;;
19735;SDS011;32064;49.310;8.646;2023-12-22T11:10:00;4.70;;;2.00;;
19735;SDS011;32064;49.310;8.646;2023-12-22T11:12:29;2.83;;;1.73;;
19735;SDS011;32064;49.310;8.646;2023-12-22T11:14:57;8.67;;;2.17;;
19735;SDS011;32064;49.310;8.646;2023-12-22T11:17:23;5.07;;;2.47;;
19735;SDS011;32064;49.310;8.646;2023-12-22T11:19:49;5.27;;;1.87;;
19735;SDS011;32064;49.310;8.646;2023-12-22T11:22:16;3.37;;;1.57;;
19735;SDS011;32064;49.310;8.646;2023-12-22T11:24:44;6.30;;;2.00;;
19735;SDS011;32064;49.310;8.646;2023-12-22T11:27:12;3.00;;;1.60;;
19735;SDS011;32064;49.310;8.646;2023-12-22T11:29:38;5.50;;;1.77;;
19735;SDS011;32064;49.310;8.646;2023-12-22T11:32:06;1.80;;;1.43;;
19735;SDS011;32064;49.310;8.646;2023-12-22T11:34:32;2.20;;;1.40;;
19735;SDS011;32064;49.310;8.646;2023-12-22T11:37:01;6.97;;;1.90;;
19735;SDS011;32064;49.310;8.646;2023-12-22T11:39:28;6.40;;;2.73;;
19735;SDS011;32064;49.310;8.646;2023-12-22T11:41:54;3.00;;;1.97;;
19735;SDS011;32064;49.310;8.646;2023-12-22T11:44:21;4.10;;;1.50;;
19735;SDS011;32064;49.310;8.646;2023-12-22T11:46:47;2.17;;;1.50;;
19735;SDS011;32064;49.310;8.646;2023-12-22T11:49:13;1.67;;;1.20;;
19735;SDS011;32064;49.310;8.646;2023-12-22T11:51:38;8.10;;;1.73;;
19735;SDS011;32064;49.310;8.646;2023-12-22T11:54:13;2.93;;;1.30;;
19735;SDS011;32064;49.310;8.646;2023-12-22T11:57:28;6.10;;;1.53;;
19735;SDS011;32064;49.310;8.646;2023-12-22T11:59:57;5.10;;;1.87;;
19735;SDS011;32064;49.310;8.646;2023-12-22T12:02:26;2.50;;;1.30;;
19735;SDS011;32064;49.310;8.646;2023-12-22T12:04:51;4.30;;;1.10;;
19735;SDS011;32064;49.310;8.646;2023-12-22T12:10:01;0.60;;;0.60;;
19735;SDS011;32064;49.310;8.646;2023-12-22T12:12:26;1.30;;;0.70;;
19735;SDS011;32064;49.310;8.646;2023-12-22T12:14:52;1.53;;;0.87;;
19735;SDS011;32064;49.310;8.646;2023-12-22T12:17:23;1.93;;;1.07;;
19735;SDS011;32064;49.310;8.646;2023-12-22T12:19:48;4.30;;;1.23;;
19735;SDS011;32064;49.310;8.646;2023-12-22T12:22:14;1.27;;;1.07;;
19735;SDS011;32064;49.310;8.646;2023-12-22T12:24:40;5.70;;;0.93;;
19735;SDS011;32064;49.310;8.646;2023-12-22T12:27:07;1.20;;;1.10;;
19735;SDS011;32064;49.310;8.646;2023-12-22T12:29:33;1.13;;;1.03;;
19735;SDS011;32064;49.310;8.646;2023-12-22T12:32:02;1.20;;;0.83;;
19735;SDS011;32064;49.310;8.646;2023-12-22T12:34:31;7.57;;;1.00;;
19735;SDS011;32064;49.310;8.646;2023-12-22T12:36:56;0.53;;;0.53;;
19735;SDS011;32064;49.310;8.646;2023-12-22T12:39:22;1.53;;;0.73;;
19735;SDS011;32064;49.310;8.646;2023-12-22T12:41:53;0.80;;;0.60;;
19735;SDS011;32064;49.310;8.646;2023-12-22T12:44:19;0.97;;;0.80;;
19735;SDS011;32064;49.310;8.646;2023-12-22T12:46:47;2.20;;;1.20;;
19735;SDS011;32064;49.310;8.646;2023-12-22T12:49:13;0.93;;;0.90;;
19735;SDS011;32064;49.310;8.646;2023-12-22T12:51:43;3.23;;;1.50;;
19735;SDS011;32064;49.310;8.646;2023-12-22T12:54:10;0.70;;;0.70;;
19735;SDS011;32064;49.310;8.646;2023-12-22T12:56:39;0.70;;;0.70;;
19735;SDS011;32064;49.310;8.646;2023-12-22T12:59:09;2.87;;;0.93;;
19735;SDS011;32064;49.310;8.646;2023-12-22T13:01:39;1.10;;;0.70;;
19735;SDS011;32064;49.310;8.646;2023-12-22T13:04:05;0.87;;;0.87;;
19735;SDS011;32064;49.310;8.646;2023-12-22T13:06:31;1.17;;;1.00;;
19735;SDS011;32064;49.310;8.646;2023-12-22T13:08:57;0.73;;;0.73;;
19735;SDS011;32064;49.310;8.646;2023-12-22T13:11:23;1.47;;;1.07;;
19735;SDS011;32064;49.310;8.646;2023-12-22T13:13:51;1.27;;;0.70;;
19735;SDS011;32064;49.310;8.646;2023-12-22T13:16:18;1.13;;;0.63;;
19735;SDS011;32064;49.310;8.646;2023-12-22T13:18:47;0.77;;;0.70;;
19735;SDS011;32064;49.310;8.646;2023-12-22T13:21:13;0.83;;;0.60;;
19735;SDS011;32064;49.310;8.646;2023-12-22T13:23:40;0.40;;;0.40;;
19735;SDS011;32064;49.310;8.646;2023-12-22T13:26:06;0.53;;;0.53;;
19735;SDS011;32064;49.310;8.646;2023-12-22T13:28:31;0.70;;;0.70;;
19735;SDS011;32064;49.310;8.646;2023-12-22T13:30:56;1.00;;;1.00;;
19735;SDS011;32064;49.310;8.646;2023-12-22T13:33:22;0.90;;;0.90;;
19735;SDS011;32064;49.310;8.646;2023-12-22T13:35:49;1.40;;;1.20;;
19735;SDS011;32064;49.310;8.646;2023-12-22T13:38:15;0.80;;;0.80;;
19735;SDS011;32064;49.310;8.646;2023-12-22T13:40:44;1.00;;;0.90;;
19735;SDS011;32064;49.310;8.646;2023-12-22T13:43:13;0.70;;;0.70;;
19735;SDS011;32064;49.310;8.646;2023-12-22T13:45:38;2.77;;;1.33;;
19735;SDS011;32064;49.310;8.646;2023-12-22T13:48:04;0.50;;;0.50;;
19735;SDS011;32064;49.310;8.646;2023-12-22T13:50:30;0.77;;;0.77;;
19735;SDS011;32064;49.310;8.646;2023-12-22T13:52:56;0.60;;;0.60;;
19735;SDS011;32064;49.310;8.646;2023-12-22T13:55:32;0.90;;;0.90;;
19735;SDS011;32064;49.310;8.646;2023-12-22T13:58:02;0.90;;;0.90;;
19735;SDS011;32064;49.310;8.646;2023-12-22T14:00:28;1.37;;;1.10;;
19735;SDS011;32064;49.310;8.646;2023-12-22T14:02:54;1.80;;;0.90;;
19735;SDS011;32064;49.310;8.646;2023-12-22T14:05:20;0.60;;;0.60;;
19735;SDS011;32064;49.310;8.646;2023-12-22T14:07:46;0.47;;;0.47;;
19735;SDS011;32064;49.310;8.646;2023-12-22T14:10:12;1.63;;;1.03;;
19735;SDS011;32064;49.310;8.646;2023-12-22T14:12:38;1.15;;;0.98;;
19735;SDS011;32064;49.310;8.646;2023-12-22T14:15:07;0.50;;;0.50;;
19735;SDS011;32064;49.310;8.646;2023-12-22T14:17:33;0.57;;;0.55;;
19735;SDS011;32064;49.310;8.646;2023-12-22T14:19:59;0.40;;;0.40;;
19735;SDS011;32064;49.310;8.646;2023-12-22T14:22:25;0.30;;;0.30;;
19735;SDS011;32064;49.310;8.646;2023-12-22T14:24:51;0.40;;;0.40;;
19735;SDS011;32064;49.310;8.646;2023-12-22T14:27:16;0.60;;;0.60;;
19735;SDS011;32064;49.310;8.646;2023-12-22T14:29:43;0.30;;;0.30;;
19735;SDS011;32064;49.310;8.646;2023-12-22T14:32:09;0.67;;;0.60;;
19735;SDS011;32064;49.310;8.646;2023-12-22T14:34:36;1.23;;;0.80;;
19735;SDS011;32064;49.310;8.646;2023-12-22T14:37:02;0.60;;;0.60;;
19735;SDS011;32064;49.310;8.646;2023-12-22T14:39:27;0.50;;;0.50;;
19735;SDS011;32064;49.310;8.646;2023-12-22T14:41:52;2.00;;;1.10;;
19735;SDS011;32064;49.310;8.646;2023-12-22T14:44:18;1.05;;;0.50;;
19735;SDS011;32064;49.310;8.646;2023-12-22T14:46:44;1.55;;;1.45;;
19735;SDS011;32064;49.310;8.646;2023-12-22T14:49:10;0.40;;;0.40;;
19735;SDS011;32064;49.310;8.646;2023-12-22T14:51:39;0.32;;;0.32;;